sensor_id;sensor_type;location;lat;lon;timestamp;P1;durP1;ratioP1;P2;durP2;ratioP2
41201;SDS011;26936;50.524;8.684;2024-01-06T00:01:19;5.95;;;1.20;;
41201;SDS011;26936;50.524;8.684;2024-01-06T00:03:44;4.07;;;1.10;;
41201;SDS011;26936;50.524;8.684;2024-01-06T00:06:13;3.60;;;1.20;;
41201;SDS011;26936;50.524;8.684;2024-01-06T00:08:39;2.85;;;1.00;;
41201;SDS011;26936;50.524;8.684;2024-01-06T00:11:04;2.53;;;0.85;;
41201;SDS011;26936;50.524;8.684;2024-01-06T00:13:29;7.23;;;1.50;;
41201;SDS011;26936;50.524;8.684;2024-01-06T00:15:54;4.90;;;0.90;;
41201;SDS011;26936;50.524;8.684;2024-01-06T00:18:20;4.65;;;1.33;;
41201;SDS011;26936;50.524;8.684;2024-01-06T00:20:45;3.53;;;1.20;;
41201;SDS011;26936;50.524;8.684;2024-01-06T00:23:10;3.72;;;1.10;;
41201;SDS011;26936;50.524;8.684;2024-01-06T00:25:36;8.40;;;1.48;;
41201;SDS011;26936;50.524;8.684;2024-01-06T00:28:01;4.60;;;1.27;;
41201;SDS011;26936;50.524;8.684;2024-01-06T00:30:26;2.97;;;1.27;;
41201;SDS011;26936;50.524;8.684;2024-01-06T00:32:51;2.20;;;1.10;;
41201;SDS011;26936;50.524;8.684;2024-01-06T00:35:17;3.60;;;2.10;;
41201;SDS011;26936;50.524;8.684;2024-01-06T00:37:42;4.75;;;1.15;;
41201;SDS011;26936;50.524;8.684;2024-01-06T00:40:08;4.28;;;1.25;;
41201;SDS011;26936;50.524;8.684;2024-01-06T00:42:34;2.60;;;1.40;;
41201;SDS011;26936;50.524;8.684;2024-01-06T00:44:59;3.53;;;1.40;;
41201;SDS011;26936;50.524;8.684;2024-01-06T00:47:25;4.80;;;1.27;;
41201;SDS011;26936;50.524;8.684;2024-01-06T00:49:50;4.25;;;1.50;;
41201;SDS011;26936;50.524;8.684;2024-01-06T00:52:15;7.78;;;1.60;;
41201;SDS011;26936;50.524;8.684;2024-01-06T00:54:40;6.30;;;1.48;;
41201;SDS011;26936;50.524;8.684;2024-01-06T00:57:06;6.07;;;1.50;;
41201;SDS011;26936;50.524;8.684;2024-01-06T00:59:31;4.82;;;1.30;;
41201;SDS011;26936;50.524;8.684;2024-01-06T01:01:56;3.47;;;1.50;;
41201;SDS011;26936;50.524;8.684;2024-01-06T01:04:21;7.38;;;2.20;;
41201;SDS011;26936;50.524;8.684;2024-01-06T01:06:47;4.63;;;1.40;;
41201;SDS011;26936;50.524;8.684;2024-01-06T01:09:12;5.68;;;1.38;;
41201;SDS011;26936;50.524;8.684;2024-01-06T01:11:39;6.45;;;1.55;;
41201;SDS011;26936;50.524;8.684;2024-01-06T01:14:04;4.15;;;1.60;;
41201;SDS011;26936;50.524;8.684;2024-01-06T01:16:29;5.07;;;1.43;;
41201;SDS011;26936;50.524;8.684;2024-01-06T01:18:57;7.32;;;1.58;;
41201;SDS011;26936;50.524;8.684;2024-01-06T01:21:22;6.05;;;1.50;;
41201;SDS011;26936;50.524;8.684;2024-01-06T01:23:47;4.83;;;1.83;;
41201;SDS011;26936;50.524;8.684;2024-01-06T01:26:13;3.80;;;1.70;;
41201;SDS011;26936;50.524;8.684;2024-01-06T01:28:38;5.07;;;1.60;;
41201;SDS011;26936;50.524;8.684;2024-01-06T01:31:03;4.80;;;1.53;;
41201;SDS011;26936;50.524;8.684;2024-01-06T01:33:28;6.90;;;1.60;;
41201;SDS011;26936;50.524;8.684;2024-01-06T01:35:54;5.53;;;1.60;;
41201;SDS011;26936;50.524;8.684;2024-01-06T01:38:19;5.13;;;1.77;;
41201;SDS011;26936;50.524;8.684;2024-01-06T01:40:44;5.73;;;1.50;;
41201;SDS011;26936;50.524;8.684;2024-01-06T01:43:16;8.30;;;1.95;;
41201;SDS011;26936;50.524;8.684;2024-01-06T01:45:42;5.97;;;1.73;;
41201;SDS011;26936;50.524;8.684;2024-01-06T01:48:08;5.65;;;1.45;;
41201;SDS011;26936;50.524;8.684;2024-01-06T01:50:33;3.75;;;1.65;;
41201;SDS011;26936;50.524;8.684;2024-01-06T01:52:58;5.78;;;1.83;;
41201;SDS011;26936;50.524;8.684;2024-01-06T01:55:24;6.18;;;1.80;;
41201;SDS011;26936;50.524;8.684;2024-01-06T01:57:50;5.45;;;1.70;;
41201;SDS011;26936;50.524;8.684;2024-01-06T02:00:15;3.05;;;1.50;;
41201;SDS011;26936;50.524;8.684;2024-01-06T02:02:40;5.80;;;1.60;;
41201;SDS011;26936;50.524;8.684;2024-01-06T02:05:06;5.35;;;1.60;;
41201;SDS011;26936;50.524;8.684;2024-01-06T02:07:31;4.47;;;1.45;;
41201;SDS011;26936;50.524;8.684;2024-01-06T02:09:56;4.27;;;1.60;;
41201;SDS011;26936;50.524;8.684;2024-01-06T02:12:22;3.10;;;1.40;;
41201;SDS011;26936;50.524;8.684;2024-01-06T02:14:47;5.47;;;1.53;;
41201;SDS011;26936;50.524;8.684;2024-01-06T02:17:12;4.67;;;1.40;;
41201;SDS011;26936;50.524;8.684;2024-01-06T02:19:37;3.80;;;2.30;;
41201;SDS011;26936;50.524;8.684;2024-01-06T02:22:03;6.65;;;1.48;;
41201;SDS011;26936;50.524;8.684;2024-01-06T02:24:28;5.80;;;1.70;;
41201;SDS011;26936;50.524;8.684;2024-01-06T02:26:53;2.60;;;1.05;;
41201;SDS011;26936;50.524;8.684;2024-01-06T02:29:19;3.43;;;1.30;;
41201;SDS011;26936;50.524;8.684;2024-01-06T02:31:44;4.30;;;1.42;;
41201;SDS011;26936;50.524;8.684;2024-01-06T02:34:09;4.10;;;1.20;;
41201;SDS011;26936;50.524;8.684;2024-01-06T02:36:35;4.10;;;1.80;;
41201;SDS011;26936;50.524;8.684;2024-01-06T02:39:00;5.13;;;1.42;;
41201;SDS011;26936;50.524;8.684;2024-01-06T02:41:25;4.10;;;1.13;;
41201;SDS011;26936;50.524;8.684;2024-01-06T02:43:51;3.53;;;1.10;;
41201;SDS011;26936;50.524;8.684;2024-01-06T02:46:19;4.65;;;1.90;;
41201;SDS011;26936;50.524;8.684;2024-01-06T02:48:44;5.60;;;2.13;;
41201;SDS011;26936;50.524;8.684;2024-01-06T02:51:10;5.65;;;2.88;;
41201;SDS011;26936;50.524;8.684;2024-01-06T02:53:36;7.05;;;1.92;;
41201;SDS011;26936;50.524;8.684;2024-01-06T02:56:02;5.97;;;2.00;;
41201;SDS011;26936;50.524;8.684;2024-01-06T02:58:27;4.75;;;1.98;;
41201;SDS011;26936;50.524;8.684;2024-01-06T03:00:52;6.43;;;2.67;;
41201;SDS011;26936;50.524;8.684;2024-01-06T03:03:18;5.27;;;2.27;;
41201;SDS011;26936;50.524;8.684;2024-01-06T03:05:43;7.00;;;2.70;;
41201;SDS011;26936;50.524;8.684;2024-01-06T03:08:08;5.77;;;3.03;;
41201;SDS011;26936;50.524;8.684;2024-01-06T03:10:34;6.90;;;2.95;;
41201;SDS011;26936;50.524;8.684;2024-01-06T03:12:59;8.37;;;2.73;;
41201;SDS011;26936;50.524;8.684;2024-01-06T03:15:24;6.22;;;2.83;;
41201;SDS011;26936;50.524;8.684;2024-01-06T03:17:50;5.38;;;2.80;;
41201;SDS011;26936;50.524;8.684;2024-01-06T03:20:15;9.65;;;3.20;;
41201;SDS011;26936;50.524;8.684;2024-01-06T03:22:40;5.53;;;3.30;;
41201;SDS011;26936;50.524;8.684;2024-01-06T03:25:06;7.17;;;3.10;;
41201;SDS011;26936;50.524;8.684;2024-01-06T03:27:31;7.30;;;2.90;;
41201;SDS011;26936;50.524;8.684;2024-01-06T03:29:56;7.28;;;2.63;;
41201;SDS011;26936;50.524;8.684;2024-01-06T03:32:22;7.73;;;2.67;;
41201;SDS011;26936;50.524;8.684;2024-01-06T03:34:47;5.53;;;2.55;;
41201;SDS011;26936;50.524;8.684;2024-01-06T03:37:12;7.43;;;2.83;;
41201;SDS011;26936;50.524;8.684;2024-01-06T03:39:38;5.53;;;2.58;;
41201;SDS011;26936;50.524;8.684;2024-01-06T03:42:03;5.72;;;2.40;;
41201;SDS011;26936;50.524;8.684;2024-01-06T03:44:28;5.50;;;2.13;;
41201;SDS011;26936;50.524;8.684;2024-01-06T03:46:56;4.45;;;2.47;;
41201;SDS011;26936;50.524;8.684;2024-01-06T03:49:22;7.53;;;2.78;;
41201;SDS011;26936;50.524;8.684;2024-01-06T03:51:48;7.65;;;3.42;;
41201;SDS011;26936;50.524;8.684;2024-01-06T03:54:14;8.70;;;3.30;;
41201;SDS011;26936;50.524;8.684;2024-01-06T03:56:39;7.45;;;3.45;;
41201;SDS011;26936;50.524;8.684;2024-01-06T03:59:04;7.10;;;3.40;;
41201;SDS011;26936;50.524;8.684;2024-01-06T04:01:30;6.82;;;3.08;;
41201;SDS011;26936;50.524;8.684;2024-01-06T04:03:59;8.48;;;2.80;;
41201;SDS011;26936;50.524;8.684;2024-01-06T04:06:24;6.55;;;3.00;;
41201;SDS011;26936;50.524;8.684;2024-01-06T04:08:50;10.17;;;2.90;;
41201;SDS011;26936;50.524;8.684;2024-01-06T04:11:18;6.93;;;2.70;;
41201;SDS011;26936;50.524;8.684;2024-01-06T04:13:43;6.83;;;2.30;;
41201;SDS011;26936;50.524;8.684;2024-01-06T04:16:08;5.80;;;2.10;;
41201;SDS011;26936;50.524;8.684;2024-01-06T04:18:33;6.03;;;2.30;;
41201;SDS011;26936;50.524;8.684;2024-01-06T04:20:59;4.67;;;1.93;;
41201;SDS011;26936;50.524;8.684;2024-01-06T04:23:24;3.20;;;2.10;;
41201;SDS011;26936;50.524;8.684;2024-01-06T04:25:49;4.30;;;2.23;;
41201;SDS011;26936;50.524;8.684;2024-01-06T04:28:14;7.38;;;2.33;;
41201;SDS011;26936;50.524;8.684;2024-01-06T04:30:40;4.00;;;1.90;;
41201;SDS011;26936;50.524;8.684;2024-01-06T04:33:05;5.70;;;1.90;;
41201;SDS011;26936;50.524;8.684;2024-01-06T04:35:31;3.17;;;1.73;;
41201;SDS011;26936;50.524;8.684;2024-01-06T04:37:56;4.68;;;2.00;;
41201;SDS011;26936;50.524;8.684;2024-01-06T04:40:21;3.63;;;1.83;;
41201;SDS011;26936;50.524;8.684;2024-01-06T04:42:46;5.68;;;2.65;;
41201;SDS011;26936;50.524;8.684;2024-01-06T04:45:12;6.80;;;3.50;;
41201;SDS011;26936;50.524;8.684;2024-01-06T04:47:37;9.83;;;4.00;;
41201;SDS011;26936;50.524;8.684;2024-01-06T04:50:02;9.63;;;3.47;;
41201;SDS011;26936;50.524;8.684;2024-01-06T04:52:28;6.53;;;2.63;;
41201;SDS011;26936;50.524;8.684;2024-01-06T04:54:54;5.57;;;2.90;;
41201;SDS011;26936;50.524;8.684;2024-01-06T04:57:20;9.60;;;3.20;;
41201;SDS011;26936;50.524;8.684;2024-01-06T04:59:45;5.32;;;2.08;;
41201;SDS011;26936;50.524;8.684;2024-01-06T05:02:11;3.97;;;1.60;;
41201;SDS011;26936;50.524;8.684;2024-01-06T05:04:36;5.57;;;1.63;;
41201;SDS011;26936;50.524;8.684;2024-01-06T05:07:01;6.07;;;2.20;;
41201;SDS011;26936;50.524;8.684;2024-01-06T05:09:27;5.93;;;1.60;;
41201;SDS011;26936;50.524;8.684;2024-01-06T05:11:52;4.67;;;1.33;;
41201;SDS011;26936;50.524;8.684;2024-01-06T05:14:17;5.65;;;1.50;;
41201;SDS011;26936;50.524;8.684;2024-01-06T05:16:43;3.63;;;1.33;;
41201;SDS011;26936;50.524;8.684;2024-01-06T05:19:08;9.87;;;3.03;;
41201;SDS011;26936;50.524;8.684;2024-01-06T05:21:34;5.90;;;3.25;;
41201;SDS011;26936;50.524;8.684;2024-01-06T05:24:00;6.63;;;3.47;;
41201;SDS011;26936;50.524;8.684;2024-01-06T05:26:26;5.05;;;3.08;;
41201;SDS011;26936;50.524;8.684;2024-01-06T05:28:51;7.88;;;2.97;;
41201;SDS011;26936;50.524;8.684;2024-01-06T05:31:17;9.00;;;2.92;;
41201;SDS011;26936;50.524;8.684;2024-01-06T05:33:42;6.07;;;2.90;;
41201;SDS011;26936;50.524;8.684;2024-01-06T05:36:07;7.35;;;3.78;;
41201;SDS011;26936;50.524;8.684;2024-01-06T05:38:33;7.72;;;3.58;;
41201;SDS011;26936;50.524;8.684;2024-01-06T05:40:58;6.57;;;3.93;;
41201;SDS011;26936;50.524;8.684;2024-01-06T05:43:23;9.23;;;4.32;;
41201;SDS011;26936;50.524;8.684;2024-01-06T05:45:49;8.98;;;4.18;;
41201;SDS011;26936;50.524;8.684;2024-01-06T05:48:14;9.27;;;4.30;;
41201;SDS011;26936;50.524;8.684;2024-01-06T05:50:40;8.10;;;4.40;;
41201;SDS011;26936;50.524;8.684;2024-01-06T05:53:05;6.55;;;3.63;;
41201;SDS011;26936;50.524;8.684;2024-01-06T05:55:31;9.80;;;4.45;;
41201;SDS011;26936;50.524;8.684;2024-01-06T05:57:57;10.35;;;4.60;;
41201;SDS011;26936;50.524;8.684;2024-01-06T06:00:22;10.02;;;4.00;;
41201;SDS011;26936;50.524;8.684;2024-01-06T06:02:47;10.32;;;4.65;;
41201;SDS011;26936;50.524;8.684;2024-01-06T06:05:13;8.75;;;3.55;;
41201;SDS011;26936;50.524;8.684;2024-01-06T06:07:38;9.55;;;4.22;;
41201;SDS011;26936;50.524;8.684;2024-01-06T06:10:07;4.80;;;3.42;;
41201;SDS011;26936;50.524;8.684;2024-01-06T06:12:34;9.00;;;4.30;;
41201;SDS011;26936;50.524;8.684;2024-01-06T06:14:59;8.70;;;4.13;;
41201;SDS011;26936;50.524;8.684;2024-01-06T06:17:25;8.90;;;4.18;;
41201;SDS011;26936;50.524;8.684;2024-01-06T06:19:50;13.13;;;4.82;;
41201;SDS011;26936;50.524;8.684;2024-01-06T06:22:16;8.82;;;3.97;;
41201;SDS011;26936;50.524;8.684;2024-01-06T06:24:41;8.15;;;4.35;;
41201;SDS011;26936;50.524;8.684;2024-01-06T06:27:06;7.47;;;4.10;;
41201;SDS011;26936;50.524;8.684;2024-01-06T06:29:31;10.82;;;4.53;;
41201;SDS011;26936;50.524;8.684;2024-01-06T06:31:57;11.63;;;4.43;;
41201;SDS011;26936;50.524;8.684;2024-01-06T06:34:22;11.50;;;4.30;;
41201;SDS011;26936;50.524;8.684;2024-01-06T06:36:48;8.95;;;3.85;;
41201;SDS011;26936;50.524;8.684;2024-01-06T06:39:13;10.18;;;4.47;;
41201;SDS011;26936;50.524;8.684;2024-01-06T06:41:38;12.00;;;4.28;;
41201;SDS011;26936;50.524;8.684;2024-01-06T06:44:04;13.32;;;4.95;;
41201;SDS011;26936;50.524;8.684;2024-01-06T06:46:29;10.90;;;4.75;;
41201;SDS011;26936;50.524;8.684;2024-01-06T06:48:55;9.07;;;4.85;;
41201;SDS011;26936;50.524;8.684;2024-01-06T06:51:20;7.83;;;4.67;;
41201;SDS011;26936;50.524;8.684;2024-01-06T06:53:49;9.35;;;4.57;;
41201;SDS011;26936;50.524;8.684;2024-01-06T06:56:15;10.02;;;4.47;;
41201;SDS011;26936;50.524;8.684;2024-01-06T06:58:42;7.57;;;3.90;;
41201;SDS011;26936;50.524;8.684;2024-01-06T07:01:07;6.85;;;3.45;;
41201;SDS011;26936;50.524;8.684;2024-01-06T07:03:32;7.13;;;3.90;;
41201;SDS011;26936;50.524;8.684;2024-01-06T07:05:57;8.20;;;3.80;;
41201;SDS011;26936;50.524;8.684;2024-01-06T07:08:23;9.00;;;3.72;;
41201;SDS011;26936;50.524;8.684;2024-01-06T07:10:48;7.20;;;3.53;;
41201;SDS011;26936;50.524;8.684;2024-01-06T07:13:13;11.07;;;3.80;;
41201;SDS011;26936;50.524;8.684;2024-01-06T07:15:38;8.70;;;3.53;;
41201;SDS011;26936;50.524;8.684;2024-01-06T07:18:04;9.02;;;3.75;;
41201;SDS011;26936;50.524;8.684;2024-01-06T07:20:29;8.85;;;3.45;;
41201;SDS011;26936;50.524;8.684;2024-01-06T07:22:54;7.90;;;3.33;;
41201;SDS011;26936;50.524;8.684;2024-01-06T07:25:20;7.65;;;3.58;;
41201;SDS011;26936;50.524;8.684;2024-01-06T07:27:45;8.35;;;3.60;;
41201;SDS011;26936;50.524;8.684;2024-01-06T07:30:10;10.95;;;3.53;;
41201;SDS011;26936;50.524;8.684;2024-01-06T07:32:36;8.40;;;3.70;;
41201;SDS011;26936;50.524;8.684;2024-01-06T07:35:01;8.90;;;3.97;;
41201;SDS011;26936;50.524;8.684;2024-01-06T07:37:27;7.78;;;4.22;;
41201;SDS011;26936;50.524;8.684;2024-01-06T07:39:52;8.43;;;3.33;;
41201;SDS011;26936;50.524;8.684;2024-01-06T07:42:18;8.48;;;3.55;;
41201;SDS011;26936;50.524;8.684;2024-01-06T07:44:43;10.03;;;3.90;;
41201;SDS011;26936;50.524;8.684;2024-01-06T07:47:09;7.10;;;3.55;;
41201;SDS011;26936;50.524;8.684;2024-01-06T07:49:34;6.28;;;3.38;;
41201;SDS011;26936;50.524;8.684;2024-01-06T07:52:00;7.30;;;4.15;;
41201;SDS011;26936;50.524;8.684;2024-01-06T07:54:25;5.80;;;3.13;;
41201;SDS011;26936;50.524;8.684;2024-01-06T07:56:50;9.87;;;3.40;;
41201;SDS011;26936;50.524;8.684;2024-01-06T07:59:15;7.87;;;3.23;;
41201;SDS011;26936;50.524;8.684;2024-01-06T08:01:41;6.53;;;3.03;;
41201;SDS011;26936;50.524;8.684;2024-01-06T08:04:07;7.57;;;3.17;;
41201;SDS011;26936;50.524;8.684;2024-01-06T08:06:33;7.30;;;3.20;;
41201;SDS011;26936;50.524;8.684;2024-01-06T08:08:59;8.18;;;3.63;;
41201;SDS011;26936;50.524;8.684;2024-01-06T08:11:24;9.73;;;3.80;;
41201;SDS011;26936;50.524;8.684;2024-01-06T08:13:49;9.57;;;4.17;;
41201;SDS011;26936;50.524;8.684;2024-01-06T08:16:14;7.25;;;3.67;;
41201;SDS011;26936;50.524;8.684;2024-01-06T08:18:40;7.57;;;3.63;;
41201;SDS011;26936;50.524;8.684;2024-01-06T08:21:05;7.80;;;3.83;;
41201;SDS011;26936;50.524;8.684;2024-01-06T08:23:31;7.20;;;3.92;;
41201;SDS011;26936;50.524;8.684;2024-01-06T08:25:56;11.40;;;4.03;;
41201;SDS011;26936;50.524;8.684;2024-01-06T08:28:22;7.28;;;3.83;;
41201;SDS011;26936;50.524;8.684;2024-01-06T08:30:48;10.25;;;3.72;;
41201;SDS011;26936;50.524;8.684;2024-01-06T08:33:14;8.43;;;3.70;;
41201;SDS011;26936;50.524;8.684;2024-01-06T08:35:39;10.97;;;4.90;;
41201;SDS011;26936;50.524;8.684;2024-01-06T08:38:08;9.85;;;4.13;;
41201;SDS011;26936;50.524;8.684;2024-01-06T08:40:34;9.75;;;3.88;;
41201;SDS011;26936;50.524;8.684;2024-01-06T08:43:00;5.35;;;3.30;;
41201;SDS011;26936;50.524;8.684;2024-01-06T08:45:25;11.18;;;4.10;;
41201;SDS011;26936;50.524;8.684;2024-01-06T08:47:50;11.38;;;3.90;;
41201;SDS011;26936;50.524;8.684;2024-01-06T08:50:16;8.40;;;3.58;;
41201;SDS011;26936;50.524;8.684;2024-01-06T08:52:41;8.70;;;3.92;;
41201;SDS011;26936;50.524;8.684;2024-01-06T08:55:06;10.73;;;3.93;;
41201;SDS011;26936;50.524;8.684;2024-01-06T08:57:32;8.63;;;3.97;;
41201;SDS011;26936;50.524;8.684;2024-01-06T08:59:57;10.43;;;3.97;;
41201;SDS011;26936;50.524;8.684;2024-01-06T09:02:23;12.30;;;4.00;;
41201;SDS011;26936;50.524;8.684;2024-01-06T09:04:48;12.97;;;3.90;;
41201;SDS011;26936;50.524;8.684;2024-01-06T09:07:13;7.87;;;3.70;;
41201;SDS011;26936;50.524;8.684;2024-01-06T09:09:38;8.25;;;3.80;;
41201;SDS011;26936;50.524;8.684;2024-01-06T09:12:04;10.07;;;3.73;;
41201;SDS011;26936;50.524;8.684;2024-01-06T09:14:29;10.52;;;4.00;;
41201;SDS011;26936;50.524;8.684;2024-01-06T09:16:55;8.80;;;3.95;;
41201;SDS011;26936;50.524;8.684;2024-01-06T09:19:20;9.75;;;3.92;;
41201;SDS011;26936;50.524;8.684;2024-01-06T09:21:46;9.32;;;3.92;;
41201;SDS011;26936;50.524;8.684;2024-01-06T09:24:12;8.15;;;3.70;;
41201;SDS011;26936;50.524;8.684;2024-01-06T09:26:37;7.63;;;3.45;;
41201;SDS011;26936;50.524;8.684;2024-01-06T09:29:02;9.60;;;3.70;;
41201;SDS011;26936;50.524;8.684;2024-01-06T09:31:29;7.63;;;4.00;;
41201;SDS011;26936;50.524;8.684;2024-01-06T09:33:54;7.60;;;3.90;;
41201;SDS011;26936;50.524;8.684;2024-01-06T09:36:20;9.60;;;3.80;;
41201;SDS011;26936;50.524;8.684;2024-01-06T09:38:45;8.48;;;4.05;;
41201;SDS011;26936;50.524;8.684;2024-01-06T09:41:11;10.75;;;3.80;;
41201;SDS011;26936;50.524;8.684;2024-01-06T09:43:36;9.57;;;4.27;;
41201;SDS011;26936;50.524;8.684;2024-01-06T09:46:06;13.55;;;4.30;;
41201;SDS011;26936;50.524;8.684;2024-01-06T09:48:40;10.93;;;4.38;;
41201;SDS011;26936;50.524;8.684;2024-01-06T09:51:16;12.93;;;4.55;;
41201;SDS011;26936;50.524;8.684;2024-01-06T09:53:48;9.15;;;4.03;;
41201;SDS011;26936;50.524;8.684;2024-01-06T09:56:15;10.70;;;4.43;;
41201;SDS011;26936;50.524;8.684;2024-01-06T09:58:41;11.23;;;4.22;;
41201;SDS011;26936;50.524;8.684;2024-01-06T10:01:06;9.93;;;4.63;;
41201;SDS011;26936;50.524;8.684;2024-01-06T10:03:33;11.65;;;4.28;;
41201;SDS011;26936;50.524;8.684;2024-01-06T10:06:00;8.18;;;3.58;;
41201;SDS011;26936;50.524;8.684;2024-01-06T10:08:28;9.45;;;4.15;;
41201;SDS011;26936;50.524;8.684;2024-01-06T10:10:54;12.88;;;4.20;;
41201;SDS011;26936;50.524;8.684;2024-01-06T10:13:19;10.47;;;4.53;;
41201;SDS011;26936;50.524;8.684;2024-01-06T10:15:44;15.20;;;4.30;;
41201;SDS011;26936;50.524;8.684;2024-01-06T10:18:11;8.05;;;4.13;;
41201;SDS011;26936;50.524;8.684;2024-01-06T10:20:37;9.77;;;4.43;;
41201;SDS011;26936;50.524;8.684;2024-01-06T10:23:06;7.10;;;4.70;;
41201;SDS011;26936;50.524;8.684;2024-01-06T10:25:31;10.07;;;4.25;;
41201;SDS011;26936;50.524;8.684;2024-01-06T10:27:57;10.35;;;4.63;;
41201;SDS011;26936;50.524;8.684;2024-01-06T10:30:25;8.68;;;4.50;;
41201;SDS011;26936;50.524;8.684;2024-01-06T10:32:50;10.00;;;4.95;;
41201;SDS011;26936;50.524;8.684;2024-01-06T10:35:17;10.40;;;4.53;;
41201;SDS011;26936;50.524;8.684;2024-01-06T10:37:43;9.38;;;4.78;;
41201;SDS011;26936;50.524;8.684;2024-01-06T10:40:13;8.70;;;4.57;;
41201;SDS011;26936;50.524;8.684;2024-01-06T10:42:42;6.82;;;4.28;;
41201;SDS011;26936;50.524;8.684;2024-01-06T10:45:12;7.75;;;3.85;;
41201;SDS011;26936;50.524;8.684;2024-01-06T10:47:40;9.05;;;4.40;;
41201;SDS011;26936;50.524;8.684;2024-01-06T10:50:07;11.95;;;4.43;;
41201;SDS011;26936;50.524;8.684;2024-01-06T10:52:33;7.85;;;4.22;;
41201;SDS011;26936;50.524;8.684;2024-01-06T10:55:00;12.20;;;4.78;;
41201;SDS011;26936;50.524;8.684;2024-01-06T10:57:27;8.45;;;4.18;;
41201;SDS011;26936;50.524;8.684;2024-01-06T10:59:56;9.85;;;4.53;;
41201;SDS011;26936;50.524;8.684;2024-01-06T11:02:23;10.98;;;4.45;;
41201;SDS011;26936;50.524;8.684;2024-01-06T11:04:50;10.38;;;4.65;;
41201;SDS011;26936;50.524;8.684;2024-01-06T11:07:17;7.80;;;4.47;;
41201;SDS011;26936;50.524;8.684;2024-01-06T11:09:50;8.88;;;4.85;;
41201;SDS011;26936;50.524;8.684;2024-01-06T11:12:17;11.00;;;4.88;;
41201;SDS011;26936;50.524;8.684;2024-01-06T11:14:43;9.57;;;4.72;;
41201;SDS011;26936;50.524;8.684;2024-01-06T11:17:10;12.80;;;4.72;;
41201;SDS011;26936;50.524;8.684;2024-01-06T11:24:48;10.73;;;4.90;;
41201;SDS011;26936;50.524;8.684;2024-01-06T11:27:33;11.43;;;5.00;;
41201;SDS011;26936;50.524;8.684;2024-01-06T11:30:00;9.50;;;4.80;;
41201;SDS011;26936;50.524;8.684;2024-01-06T11:32:28;11.02;;;5.15;;
41201;SDS011;26936;50.524;8.684;2024-01-06T11:34:55;11.20;;;5.50;;
41201;SDS011;26936;50.524;8.684;2024-01-06T11:37:34;9.63;;;4.90;;
41201;SDS011;26936;50.524;8.684;2024-01-06T11:40:07;8.45;;;5.03;;
41201;SDS011;26936;50.524;8.684;2024-01-06T11:42:33;9.63;;;5.30;;
41201;SDS011;26936;50.524;8.684;2024-01-06T11:45:03;12.73;;;5.32;;
41201;SDS011;26936;50.524;8.684;2024-01-06T11:47:30;8.20;;;4.63;;
41201;SDS011;26936;50.524;8.684;2024-01-06T11:49:56;8.80;;;5.10;;
41201;SDS011;26936;50.524;8.684;2024-01-06T11:52:24;8.23;;;5.45;;
41201;SDS011;26936;50.524;8.684;2024-01-06T11:54:50;9.90;;;4.75;;
41201;SDS011;26936;50.524;8.684;2024-01-06T11:57:17;8.23;;;4.72;;
41201;SDS011;26936;50.524;8.684;2024-01-06T11:59:42;8.38;;;4.55;;
41201;SDS011;26936;50.524;8.684;2024-01-06T12:02:10;10.93;;;4.72;;
41201;SDS011;26936;50.524;8.684;2024-01-06T12:04:36;11.93;;;4.95;;
41201;SDS011;26936;50.524;8.684;2024-01-06T12:07:08;9.97;;;4.40;;
41201;SDS011;26936;50.524;8.684;2024-01-06T12:09:34;8.98;;;5.00;;
41201;SDS011;26936;50.524;8.684;2024-01-06T12:12:01;11.48;;;5.93;;
41201;SDS011;26936;50.524;8.684;2024-01-06T12:14:30;11.90;;;6.45;;
41201;SDS011;26936;50.524;8.684;2024-01-06T12:17:58;13.55;;;6.35;;
41201;SDS011;26936;50.524;8.684;2024-01-06T12:20:54;12.75;;;6.47;;
41201;SDS011;26936;50.524;8.684;2024-01-06T12:37:02;15.05;;;5.63;;
41201;SDS011;26936;50.524;8.684;2024-01-06T12:39:51;10.35;;;6.70;;
41201;SDS011;26936;50.524;8.684;2024-01-06T12:42:16;9.95;;;5.70;;
41201;SDS011;26936;50.524;8.684;2024-01-06T12:44:47;9.90;;;5.00;;
41201;SDS011;26936;50.524;8.684;2024-01-06T12:47:17;9.63;;;4.80;;
41201;SDS011;26936;50.524;8.684;2024-01-06T12:49:42;9.75;;;5.03;;
41201;SDS011;26936;50.524;8.684;2024-01-06T12:52:08;9.43;;;5.97;;
41201;SDS011;26936;50.524;8.684;2024-01-06T12:54:36;11.55;;;5.53;;
41201;SDS011;26936;50.524;8.684;2024-01-06T12:57:02;10.32;;;5.70;;
41201;SDS011;26936;50.524;8.684;2024-01-06T12:59:30;11.75;;;6.50;;
41201;SDS011;26936;50.524;8.684;2024-01-06T13:01:56;12.40;;;6.25;;
41201;SDS011;26936;50.524;8.684;2024-01-06T13:04:22;12.15;;;5.55;;
41201;SDS011;26936;50.524;8.684;2024-01-06T13:06:51;9.55;;;6.15;;
41201;SDS011;26936;50.524;8.684;2024-01-06T13:09:16;13.40;;;5.97;;
41201;SDS011;26936;50.524;8.684;2024-01-06T13:11:42;12.15;;;5.90;;
41201;SDS011;26936;50.524;8.684;2024-01-06T13:14:07;10.75;;;6.43;;
41201;SDS011;26936;50.524;8.684;2024-01-06T13:16:33;11.65;;;7.28;;
41201;SDS011;26936;50.524;8.684;2024-01-06T13:18:58;9.88;;;6.13;;
41201;SDS011;26936;50.524;8.684;2024-01-06T13:21:24;26.30;;;12.68;;
41201;SDS011;26936;50.524;8.684;2024-01-06T13:23:49;11.10;;;7.43;;
41201;SDS011;26936;50.524;8.684;2024-01-06T13:26:17;11.50;;;7.00;;
41201;SDS011;26936;50.524;8.684;2024-01-06T13:28:43;12.02;;;6.90;;
41201;SDS011;26936;50.524;8.684;2024-01-06T13:31:08;16.17;;;7.07;;
41201;SDS011;26936;50.524;8.684;2024-01-06T13:33:34;12.60;;;6.28;;
41201;SDS011;26936;50.524;8.684;2024-01-06T13:36:00;16.05;;;8.60;;
41201;SDS011;26936;50.524;8.684;2024-01-06T13:38:26;17.55;;;9.27;;
41201;SDS011;26936;50.524;8.684;2024-01-06T13:40:51;11.45;;;6.03;;
41201;SDS011;26936;50.524;8.684;2024-01-06T13:43:17;10.57;;;5.45;;
41201;SDS011;26936;50.524;8.684;2024-01-06T13:45:45;15.30;;;7.97;;
41201;SDS011;26936;50.524;8.684;2024-01-06T13:48:11;11.68;;;5.78;;
41201;SDS011;26936;50.524;8.684;2024-01-06T13:50:36;10.10;;;5.32;;
41201;SDS011;26936;50.524;8.684;2024-01-06T13:53:01;11.68;;;6.38;;
41201;SDS011;26936;50.524;8.684;2024-01-06T13:55:28;9.93;;;5.00;;
41201;SDS011;26936;50.524;8.684;2024-01-06T13:57:53;10.73;;;6.22;;
41201;SDS011;26936;50.524;8.684;2024-01-06T14:00:18;9.68;;;5.75;;
41201;SDS011;26936;50.524;8.684;2024-01-06T14:02:45;12.55;;;6.40;;
41201;SDS011;26936;50.524;8.684;2024-01-06T14:05:12;10.85;;;5.95;;
41201;SDS011;26936;50.524;8.684;2024-01-06T14:07:38;13.23;;;6.63;;
41201;SDS011;26936;50.524;8.684;2024-01-06T14:10:05;12.77;;;6.45;;
41201;SDS011;26936;50.524;8.684;2024-01-06T14:12:34;12.68;;;6.13;;
41201;SDS011;26936;50.524;8.684;2024-01-06T14:14:59;11.75;;;6.60;;
41201;SDS011;26936;50.524;8.684;2024-01-06T14:17:26;10.82;;;6.03;;
41201;SDS011;26936;50.524;8.684;2024-01-06T14:19:51;10.27;;;6.05;;
41201;SDS011;26936;50.524;8.684;2024-01-06T14:22:17;11.35;;;6.07;;
41201;SDS011;26936;50.524;8.684;2024-01-06T14:24:43;12.07;;;6.13;;
41201;SDS011;26936;50.524;8.684;2024-01-06T14:27:08;10.57;;;5.97;;
41201;SDS011;26936;50.524;8.684;2024-01-06T14:29:33;15.35;;;6.70;;
41201;SDS011;26936;50.524;8.684;2024-01-06T14:31:59;12.43;;;7.22;;
41201;SDS011;26936;50.524;8.684;2024-01-06T14:34:24;11.17;;;6.30;;
41201;SDS011;26936;50.524;8.684;2024-01-06T14:36:49;12.10;;;7.30;;
41201;SDS011;26936;50.524;8.684;2024-01-06T14:39:15;11.35;;;6.65;;
41201;SDS011;26936;50.524;8.684;2024-01-06T14:41:41;11.40;;;6.80;;
41201;SDS011;26936;50.524;8.684;2024-01-06T14:44:06;14.00;;;7.43;;
41201;SDS011;26936;50.524;8.684;2024-01-06T14:46:32;9.23;;;5.40;;
41201;SDS011;26936;50.524;8.684;2024-01-06T14:49:00;10.00;;;6.50;;
41201;SDS011;26936;50.524;8.684;2024-01-06T14:51:28;11.75;;;6.18;;
41201;SDS011;26936;50.524;8.684;2024-01-06T14:53:53;10.23;;;5.47;;
41201;SDS011;26936;50.524;8.684;2024-01-06T14:56:20;8.77;;;5.57;;